Time;durP1;ratioP1;P1;durP2;ratioP2;P2;SDS_P1;SDS_P2;PMS_P1;PMS_P2;Temp;Humidity;BMP_temperature;BMP_pressure;BME280_temperature;BME280_humidity;BME280_pressure;Samples;Min_cycle;Max_cycle;Signal;HPM_P1;HPM_P2
2021/04/11 00:00:48;;;;;;;40.13;24.90;;;;;;;;;;4986319;28;20191;-70
2021/04/11 00:03:19;;;;;;;44.57;25.23;;;;;;;;;;4990773;28;20718;-69
2021/04/11 00:05:45;;;;;;;43.70;24.40;;;;;;;;;;4994026;28;20190;-69
2021/04/11 00:08:12;;;;;;;38.07;25.07;;;;;;;;;;4999742;28;20210;-69
2021/04/11 00:10:42;;;;;;;46.10;27.07;;;;;;;;;;4984593;28;20797;-69
2021/04/11 00:13:13;;;;;;;41.20;24.80;;;;;;;;;;4994895;28;20178;-69
2021/04/11 00:15:39;;;;;;;38.70;23.37;;;;;;;;;;4987205;28;20274;-69
2021/04/11 00:18:05;;;;;;;41.63;21.87;;;;;;;;;;5001203;28;20274;-70
2021/04/11 00:20:30;;;;;;;34.77;20.00;;;;;;;;;;4993611;28;20190;-70
2021/04/11 00:22:55;;;;;;;34.97;20.30;;;;;;;;;;4982839;28;20250;-70
2021/04/11 00:25:27;;;;;;;29.87;18.93;;;;;;;;;;4992756;28;20666;-69
2021/04/11 00:27:52;;;;;;;26.27;17.50;;;;;;;;;;4991952;28;20195;-69
2021/04/11 00:30:20;;;;;;;26.77;17.00;;;;;;;;;;4997533;28;20529;-69
2021/04/11 00:32:47;;;;;;;29.07;17.87;;;;;;;;;;4985797;28;20180;-69
2021/04/11 00:35:13;;;;;;;23.23;15.87;;;;;;;;;;4990708;28;20606;-70
2021/04/11 00:37:38;;;;;;;22.90;15.00;;;;;;;;;;4990661;28;20233;-70
2021/04/11 00:40:10;;;;;;;22.83;13.90;;;;;;;;;;4990425;28;20195;-70
2021/04/11 00:42:40;;;;;;;18.50;12.27;;;;;;;;;;4989299;28;20190;-69
2021/04/11 00:45:24;;;;;;;16.40;12.27;;;;;;;;;;4995377;28;20573;-68
2021/04/11 00:47:50;;;;;;;19.77;12.37;;;;;;;;;;4989845;28;20264;-69
2021/04/11 00:50:16;;;;;;;17.80;11.90;;;;;;;;;;4993734;28;20211;-68
2021/04/11 00:52:43;;;;;;;17.30;12.00;;;;;;;;;;4984204;28;20218;-69
2021/04/11 00:55:09;;;;;;;17.50;11.70;;;;;;;;;;4995961;28;20233;-68
2021/04/11 00:57:35;;;;;;;20.27;12.20;;;;;;;;;;4990808;28;20187;-68
2021/04/11 01:00:00;;;;;;;15.80;11.73;;;;;;;;;;4995973;28;20643;-68
2021/04/11 01:02:26;;;;;;;17.87;12.13;;;;;;;;;;4995544;28;20219;-68
2021/04/11 01:04:52;;;;;;;17.93;12.17;;;;;;;;;;4984049;28;20678;-68
2021/04/11 01:07:19;;;;;;;17.10;11.80;;;;;;;;;;4991473;28;20199;-69
2021/04/11 01:09:46;;;;;;;14.20;10.20;;;;;;;;;;4981358;28;20187;-68
2021/04/11 01:12:17;;;;;;;17.87;11.13;;;;;;;;;;4999377;28;20183;-69
2021/04/11 01:14:44;;;;;;;17.97;11.40;;;;;;;;;;4986579;28;20446;-69
2021/04/11 01:17:16;;;;;;;15.80;11.23;;;;;;;;;;4999590;28;20203;-70
2021/04/11 01:19:42;;;;;;;15.70;11.03;;;;;;;;;;4984125;28;20623;-69
2021/04/11 01:22:23;;;;;;;14.10;10.70;;;;;;;;;;4997214;28;20281;-69
2021/04/11 01:24:52;;;;;;;16.47;11.03;;;;;;;;;;4983650;28;20199;-69
2021/04/11 01:27:28;;;;;;;17.30;12.10;;;;;;;;;;4999296;28;20207;-69
2021/04/11 01:29:55;;;;;;;17.97;12.53;;;;;;;;;;4985138;28;20190;-69
2021/04/11 01:32:22;;;;;;;19.13;13.47;;;;;;;;;;4998122;28;20555;-69
2021/04/11 01:34:48;;;;;;;20.20;13.73;;;;;;;;;;4984555;28;20180;-69
2021/04/11 01:37:18;;;;;;;21.23;14.30;;;;;;;;;;4998687;28;20199;-69
2021/04/11 01:39:45;;;;;;;19.13;14.00;;;;;;;;;;4984651;28;20183;-69
2021/04/11 01:42:12;;;;;;;23.73;15.53;;;;;;;;;;4990237;28;20307;-69
2021/04/11 01:44:41;;;;;;;23.47;16.00;;;;;;;;;;4992705;28;20238;-69
2021/04/11 01:47:07;;;;;;;23.03;15.57;;;;;;;;;;4990759;28;20186;-69
2021/04/11 01:49:33;;;;;;;20.87;14.50;;;;;;;;;;4993905;28;20187;-69
2021/04/11 01:52:06;;;;;;;27.23;16.00;;;;;;;;;;4984686;28;20187;-69
2021/04/11 01:54:34;;;;;;;25.00;16.03;;;;;;;;;;5009989;28;20195;-69
2021/04/11 01:57:05;;;;;;;25.73;15.77;;;;;;;;;;4988004;28;20557;-69
2021/04/11 01:59:31;;;;;;;25.90;17.23;;;;;;;;;;4994304;28;20658;-69
2021/04/11 02:01:56;;;;;;;23.53;15.47;;;;;;;;;;4987667;28;20200;-69
2021/04/11 02:04:22;;;;;;;23.80;15.87;;;;;;;;;;4995046;28;20207;-69
2021/04/11 02:06:52;;;;;;;26.17;16.23;;;;;;;;;;4996794;28;20188;-69
2021/04/11 02:09:21;;;;;;;30.43;17.40;;;;;;;;;;4995016;28;20195;-69
2021/04/11 02:11:47;;;;;;;27.53;16.60;;;;;;;;;;4987113;28;20625;-69
2021/04/11 02:14:13;;;;;;;29.33;16.80;;;;;;;;;;4996411;28;20213;-69
2021/04/11 02:16:39;;;;;;;30.73;17.67;;;;;;;;;;4986498;28;20187;-69
2021/04/11 02:19:11;;;;;;;26.97;17.20;;;;;;;;;;4997244;28;20199;-69
2021/04/11 02:21:38;;;;;;;26.70;16.23;;;;;;;;;;4999989;28;20187;-69
2021/04/11 02:24:05;;;;;;;26.03;17.40;;;;;;;;;;4989167;28;20234;-69
2021/04/11 02:26:31;;;;;;;30.37;18.37;;;;;;;;;;4998753;28;20194;-69
2021/04/11 02:28:58;;;;;;;29.23;18.17;;;;;;;;;;4987545;28;20253;-69
2021/04/11 02:31:24;;;;;;;31.57;18.20;;;;;;;;;;4991098;28;20190;-69
2021/04/11 02:33:55;;;;;;;30.60;18.30;;;;;;;;;;4990377;28;20187;-69
2021/04/11 02:36:23;;;;;;;29.40;18.70;;;;;;;;;;4998116;28;20267;-69
2021/04/11 02:38:52;;;;;;;30.50;18.70;;;;;;;;;;4991384;28;20225;-69
2021/04/11 02:41:18;;;;;;;31.97;19.33;;;;;;;;;;5001300;28;20377;-69
2021/04/11 02:43:44;;;;;;;29.50;19.83;;;;;;;;;;4988812;28;20254;-69
2021/04/11 02:46:12;;;;;;;30.67;19.10;;;;;;;;;;4995202;28;20545;-69
2021/04/11 02:48:37;;;;;;;31.57;19.90;;;;;;;;;;4990363;28;20912;-68
2021/04/11 02:51:04;;;;;;;23.90;16.80;;;;;;;;;;4993480;28;20245;-69
2021/04/11 02:53:31;;;;;;;27.13;17.63;;;;;;;;;;4991780;28;20183;-69
2021/04/11 02:55:58;;;;;;;26.57;16.80;;;;;;;;;;4999335;28;20190;-69
2021/04/11 02:58:24;;;;;;;25.47;16.70;;;;;;;;;;4998313;28;20456;-68
2021/04/11 03:01:07;;;;;;;23.67;15.70;;;;;;;;;;4989697;28;20275;-69
2021/04/11 03:03:33;;;;;;;26.53;17.03;;;;;;;;;;4997021;28;20242;-69
2021/04/11 03:06:03;;;;;;;23.60;16.37;;;;;;;;;;4989804;28;20285;-70
2021/04/11 03:08:32;;;;;;;24.93;17.53;;;;;;;;;;4998927;28;20195;-69
2021/04/11 03:11:05;;;;;;;26.73;17.70;;;;;;;;;;4985240;28;20202;-69
2021/04/11 03:13:33;;;;;;;25.47;16.90;;;;;;;;;;4994435;28;20521;-69
2021/04/11 03:15:59;;;;;;;28.53;17.23;;;;;;;;;;4986392;28;20276;-69
2021/04/11 03:18:25;;;;;;;23.97;16.27;;;;;;;;;;4996113;28;20659;-69
2021/04/11 03:20:51;;;;;;;28.17;18.03;;;;;;;;;;4994177;28;20318;-68
2021/04/11 03:23:19;;;;;;;26.73;19.23;;;;;;;;;;4993979;28;20282;-68
2021/04/11 03:25:44;;;;;;;27.70;18.63;;;;;;;;;;4984835;28;20199;-68
2021/04/11 03:28:16;;;;;;;27.47;18.60;;;;;;;;;;4992251;28;20798;-68
2021/04/11 03:31:03;;;;;;;25.67;17.37;;;;;;;;;;4983786;28;20202;-69
2021/04/11 03:33:30;;;;;;;26.87;17.80;;;;;;;;;;4992500;28;20225;-69
2021/04/11 03:35:55;;;;;;;24.73;17.53;;;;;;;;;;4988022;28;20195;-69
2021/04/11 03:38:24;;;;;;;27.13;17.03;;;;;;;;;;4995873;28;20693;-69
2021/04/11 03:40:53;;;;;;;26.70;17.37;;;;;;;;;;4983870;28;20483;-68
2021/04/11 03:43:27;;;;;;;27.13;18.83;;;;;;;;;;4993001;28;20183;-71
2021/04/11 03:45:56;;;;;;;25.17;17.23;;;;;;;;;;4987187;28;20224;-70
2021/04/11 03:48:29;;;;;;;27.83;17.87;;;;;;;;;;4990133;28;20699;-69
2021/04/11 03:51:02;;;;;;;24.37;17.13;;;;;;;;;;4992255;28;20186;-69
2021/04/11 03:53:36;;;;;;;22.50;16.07;;;;;;;;;;4985784;28;20725;-69
2021/04/11 03:56:08;;;;;;;23.17;16.13;;;;;;;;;;4993516;28;20195;-69
2021/04/11 03:58:39;;;;;;;20.40;15.40;;;;;;;;;;4988877;28;20204;-68
2021/04/11 04:01:08;;;;;;;22.47;14.97;;;;;;;;;;4992104;28;20199;-68
2021/04/11 04:03:35;;;;;;;19.13;13.50;;;;;;;;;;4984591;28;20737;-69
2021/04/11 04:06:18;;;;;;;21.67;14.47;;;;;;;;;;4989743;28;20519;-69
2021/04/11 04:08:43;;;;;;;23.23;13.80;;;;;;;;;;4989454;28;20198;-69
2021/04/11 04:11:31;;;;;;;20.00;14.83;;;;;;;;;;5014099;28;20664;-68
2021/04/11 04:14:33;;;;;;;20.97;14.27;;;;;;;;;;4985763;28;20182;-69
2021/04/11 04:17:28;;;;;;;21.83;14.53;;;;;;;;;;4997730;28;20228;-68
2021/04/11 04:19:59;;;;;;;26.67;15.67;;;;;;;;;;4987769;28;20199;-69
2021/04/11 04:22:51;;;;;;;27.43;17.53;;;;;;;;;;4995336;28;20190;-68
2021/04/11 04:25:30;;;;;;;27.87;17.67;;;;;;;;;;5001032;28;21424;-68
2021/04/11 04:28:05;;;;;;;25.90;16.90;;;;;;;;;;4986421;28;20198;-68
2021/04/11 04:30:50;;;;;;;30.37;18.07;;;;;;;;;;4996730;28;20273;-68
2021/04/11 04:33:24;;;;;;;29.17;16.37;;;;;;;;;;4985519;28;20187;-68
2021/04/11 04:36:08;;;;;;;25.40;16.50;;;;;;;;;;5000179;28;20281;-68
2021/04/11 04:38:53;;;;;;;24.33;16.50;;;;;;;;;;4989259;28;20203;-69
2021/04/11 04:41:43;;;;;;;23.47;14.97;;;;;;;;;;4996111;28;20230;-68
2021/04/11 04:44:18;;;;;;;21.87;15.03;;;;;;;;;;4985718;28;20221;-69
2021/04/11 04:46:52;;;;;;;20.90;14.77;;;;;;;;;;4996194;28;20317;-69
2021/04/11 04:49:40;;;;;;;23.13;15.17;;;;;;;;;;4991386;28;20661;-68
2021/04/11 04:52:13;;;;;;;21.53;13.67;;;;;;;;;;4991282;28;20190;-68
2021/04/11 04:54:45;;;;;;;18.67;12.97;;;;;;;;;;4989627;28;20234;-68
2021/04/11 04:57:17;;;;;;;14.83;11.40;;;;;;;;;;4990348;28;20191;-69
2021/04/11 05:00:16;;;;;;;15.70;11.07;;;;;;;;;;4990556;28;20233;-68
2021/04/11 05:03:13;;;;;;;15.73;10.20;;;;;;;;;;4991431;28;20207;-68
2021/04/11 05:05:53;;;;;;;14.47;9.90;;;;;;;;;;4982494;28;20680;-68
2021/04/11 05:08:30;;;;;;;12.90;9.33;;;;;;;;;;4991846;28;20197;-68
2021/04/11 05:11:05;;;;;;;14.63;8.77;;;;;;;;;;4982949;28;20209;-68
2021/04/11 05:13:37;;;;;;;14.77;9.13;;;;;;;;;;4993398;28;20183;-69
2021/04/11 05:16:22;;;;;;;12.93;9.20;;;;;;;;;;4982304;28;20242;-69
2021/04/11 05:18:58;;;;;;;12.90;8.97;;;;;;;;;;4990403;28;20182;-68
2021/04/11 05:21:27;;;;;;;13.47;9.07;;;;;;;;;;4983743;28;20230;-69
2021/04/11 05:24:01;;;;;;;13.20;8.27;;;;;;;;;;4992554;28;20699;-69
2021/04/11 05:26:33;;;;;;;10.97;8.10;;;;;;;;;;4985443;28;20253;-69
2021/04/11 05:29:25;;;;;;;14.97;8.80;;;;;;;;;;4989114;28;20643;-69
2021/04/11 05:31:54;;;;;;;10.70;8.10;;;;;;;;;;4982629;28;20191;-69
2021/04/11 05:34:21;;;;;;;9.80;7.80;;;;;;;;;;4993901;28;20190;-68
2021/04/11 05:37:01;;;;;;;16.37;7.63;;;;;;;;;;4990769;28;20615;-68
2021/04/11 05:39:46;;;;;;;10.73;7.53;;;;;;;;;;4996965;28;20181;-68
2021/04/11 05:42:28;;;;;;;14.00;7.97;;;;;;;;;;4988514;28;20321;-68
2021/04/11 05:45:10;;;;;;;8.93;7.33;;;;;;;;;;5000300;28;20562;-69
2021/04/11 05:47:40;;;;;;;11.03;7.00;;;;;;;;;;4990192;28;20650;-68
2021/04/11 05:50:18;;;;;;;9.33;6.93;;;;;;;;;;4996117;28;20551;-68
2021/04/11 05:53:03;;;;;;;10.07;7.10;;;;;;;;;;4985497;28;20895;-68
2021/04/11 05:55:33;;;;;;;11.70;6.07;;;;;;;;;;4996895;28;20179;-67
2021/04/11 05:58:04;;;;;;;9.23;6.00;;;;;;;;;;4989632;28;20230;-68
2021/04/11 06:00:44;;;;;;;8.33;6.40;;;;;;;;;;5000209;28;20183;-68
2021/04/11 06:03:21;;;;;;;8.67;6.00;;;;;;;;;;4987395;28;20252;-68
2021/04/11 06:06:04;;;;;;;9.47;6.53;;;;;;;;;;4998542;28;20211;-69
2021/04/11 06:08:38;;;;;;;9.17;6.30;;;;;;;;;;4985439;28;20230;-69
2021/04/11 06:11:21;;;;;;;8.60;5.60;;;;;;;;;;4996654;28;20646;-69
2021/04/11 06:13:58;;;;;;;10.20;5.57;;;;;;;;;;4992103;28;20183;-69
2021/04/11 06:16:26;;;;;;;8.07;5.40;;;;;;;;;;4995044;28;21065;-68
2021/04/11 06:18:54;;;;;;;6.70;5.20;;;;;;;;;;4989805;28;20195;-68
2021/04/11 06:21:44;;;;;;;6.33;4.67;;;;;;;;;;5000706;28;21854;-68
2021/04/11 06:24:33;;;;;;;5.30;4.30;;;;;;;;;;4990229;28;20225;-68
2021/04/11 06:27:28;;;;;;;6.77;4.40;;;;;;;;;;4995096;28;20209;-69
2021/04/11 06:30:06;;;;;;;7.00;3.87;;;;;;;;;;4986581;28;20264;-69
2021/04/11 06:32:37;;;;;;;5.60;3.60;;;;;;;;;;4996955;28;20856;-68
2021/04/11 06:35:07;;;;;;;4.03;3.50;;;;;;;;;;4988108;28;20184;-69
2021/04/11 06:37:35;;;;;;;6.57;3.47;;;;;;;;;;4995211;28;20272;-69
2021/04/11 06:40:04;;;;;;;4.10;3.70;;;;;;;;;;4984312;28;20190;-69
2021/04/11 06:42:56;;;;;;;7.73;3.60;;;;;;;;;;4998120;28;20190;-69
2021/04/11 06:45:39;;;;;;;5.33;3.30;;;;;;;;;;4984898;28;20203;-69
2021/04/11 06:48:17;;;;;;;3.40;3.07;;;;;;;;;;4995395;28;20185;-69
2021/04/11 06:51:17;;;;;;;3.90;3.50;;;;;;;;;;4984995;28;20186;-69
2021/04/11 06:53:51;;;;;;;2.70;2.50;;;;;;;;;;4992198;28;20199;-69
2021/04/11 06:56:28;;;;;;;5.20;2.97;;;;;;;;;;4985081;28;20187;-68
2021/04/11 06:59:22;;;;;;;2.17;1.90;;;;;;;;;;4995338;28;20582;-68
2021/04/11 07:02:21;;;;;;;7.10;2.37;;;;;;;;;;4983351;28;20184;-68
2021/04/11 07:05:31;;;;;;;3.63;2.47;;;;;;;;;;4993367;28;20212;-69
2021/04/11 07:08:54;;;;;;;2.43;1.97;;;;;;;;;;4971611;28;20667;-69
2021/04/11 07:12:03;;;;;;;2.43;2.13;;;;;;;;;;4929371;28;20209;-68
2021/04/11 07:15:02;;;;;;;2.30;1.73;;;;;;;;;;4942605;29;20177;-69
2021/04/11 07:17:50;;;;;;;3.00;1.80;;;;;;;;;;4981562;28;20194;-68
2021/04/11 07:20:46;;;;;;;4.53;1.57;;;;;;;;;;4966497;28;20199;-69
2021/04/11 07:23:45;;;;;;;2.47;1.30;;;;;;;;;;4981004;28;21316;-68
2021/04/11 07:26:25;;;;;;;2.00;1.43;;;;;;;;;;4987830;28;20618;-69
2021/04/11 07:29:18;;;;;;;3.43;1.67;;;;;;;;;;4982915;28;20191;-69
2021/04/11 07:31:58;;;;;;;2.97;1.63;;;;;;;;;;4990186;28;20237;-69
2021/04/11 07:34:45;;;;;;;1.67;1.53;;;;;;;;;;4983974;28;20257;-69
2021/04/11 07:37:16;;;;;;;2.97;1.47;;;;;;;;;;4993101;28;20203;-69
2021/04/11 07:40:03;;;;;;;1.67;1.03;;;;;;;;;;4296721;28;10001354;-69
2021/04/11 07:42:54;;;;;;;3.13;1.30;;;;;;;;;;4988079;28;20642;-69
2021/04/11 07:46:03;;;;;;;1.63;1.17;;;;;;;;;;4984618;28;20207;-69
2021/04/11 07:48:56;;;;;;;1.43;1.20;;;;;;;;;;4957030;28;20873;-75
2021/04/11 07:51:37;;;;;;;1.50;1.37;;;;;;;;;;4990606;28;20183;-69
2021/04/11 07:54:11;;;;;;;1.30;1.10;;;;;;;;;;4981814;28;20199;-69
2021/04/11 07:57:19;;;;;;;2.07;1.00;;;;;;;;;;4986396;28;20187;-69
2021/04/11 08:00:29;;;;;;;1.90;0.90;;;;;;;;;;4962172;28;20194;-69
2021/04/11 08:03:00;;;;;;;2.80;1.00;;;;;;;;;;4967480;28;20223;-70
2021/04/11 08:05:25;;;;;;;1.30;0.80;;;;;;;;;;4979736;28;21240;-69
2021/04/11 08:08:19;;;;;;;1.67;1.03;;;;;;;;;;4988214;28;20669;-69
2021/04/11 08:11:22;;;;;;;3.00;1.00;;;;;;;;;;4983619;28;20702;-69
2021/04/11 08:13:55;;;;;;;2.57;0.90;;;;;;;;;;4992366;28;20186;-69
2021/04/11 08:16:26;;;;;;;2.07;0.90;;;;;;;;;;4982859;28;20257;-69
2021/04/11 08:19:14;;;;;;;3.80;1.10;;;;;;;;;;4996224;28;20297;-69
2021/04/11 08:21:50;;;;;;;2.90;1.03;;;;;;;;;;4985792;28;20199;-69
2021/04/11 08:24:37;;;;;;;2.77;1.23;;;;;;;;;;4991407;28;20273;-69
2021/04/11 08:27:40;;;;;;;2.53;0.90;;;;;;;;;;4982219;28;20187;-69
2021/04/11 08:30:23;;;;;;;2.57;1.00;;;;;;;;;;4994041;28;20185;-69
2021/04/11 08:33:25;;;;;;;0.80;0.70;;;;;;;;;;4992728;28;20194;-69
2021/04/11 08:36:06;;;;;;;2.43;1.07;;;;;;;;;;4989107;28;20575;-69
2021/04/11 08:39:09;;;;;;;2.83;1.20;;;;;;;;;;4990430;28;20599;-69
2021/04/11 08:41:59;;;;;;;2.13;0.60;;;;;;;;;;4985710;28;20237;-68
2021/04/11 08:44:34;;;;;;;2.37;1.10;;;;;;;;;;4992062;28;20306;-69
2021/04/11 08:47:25;;;;;;;5.97;0.90;;;;;;;;;;4980514;28;20419;-69
2021/04/11 08:50:00;;;;;;;3.13;0.97;;;;;;;;;;4995121;28;20203;-69
2021/04/11 08:52:51;;;;;;;3.03;1.20;;;;;;;;;;4986652;28;20211;-70
2021/04/11 08:55:48;;;;;;;7.10;1.27;;;;;;;;;;4991566;28;20183;-69
2021/04/11 08:58:32;;;;;;;1.13;0.77;;;;;;;;;;4978011;28;20190;-69
2021/04/11 09:01:09;;;;;;;3.30;0.90;;;;;;;;;;4992191;28;20187;-69
2021/04/11 09:03:46;;;;;;;3.87;0.90;;;;;;;;;;4988842;28;20548;-69
2021/04/11 09:06:38;;;;;;;2.80;1.10;;;;;;;;;;4992459;28;20635;-69
2021/04/11 09:09:30;;;;;;;3.20;1.30;;;;;;;;;;4980301;28;20180;-69
2021/04/11 09:12:18;;;;;;;2.87;0.93;;;;;;;;;;4991569;28;20753;-68
2021/04/11 09:15:08;;;;;;;4.30;1.43;;;;;;;;;;4982982;28;20644;-68
2021/04/11 09:17:50;;;;;;;3.37;0.90;;;;;;;;;;4991667;28;20270;-69
2021/04/11 09:20:35;;;;;;;4.17;1.10;;;;;;;;;;4985808;28;20182;-69
2021/04/11 09:23:38;;;;;;;2.90;1.00;;;;;;;;;;4980583;28;20559;-68
2021/04/11 09:26:41;;;;;;;5.23;1.27;;;;;;;;;;4992696;28;20269;-69
2021/04/11 09:29:44;;;;;;;3.47;1.10;;;;;;;;;;4977385;28;20187;-68
2021/04/11 09:32:47;;;;;;;3.27;1.07;;;;;;;;;;4990299;28;20182;-68
2021/04/11 09:35:21;;;;;;;3.17;1.10;;;;;;;;;;4980557;28;20253;-68
2021/04/11 09:38:14;;;;;;;3.77;1.20;;;;;;;;;;4990011;28;20626;-69
2021/04/11 09:40:53;;;;;;;3.13;1.00;;;;;;;;;;4978319;28;20222;-69
2021/04/11 09:43:30;;;;;;;6.87;1.00;;;;;;;;;;4986793;28;20647;-69
2021/04/11 09:46:26;;;;;;;4.37;1.13;;;;;;;;;;4977133;28;20273;-69
2021/04/11 09:49:24;;;;;;;1.93;0.93;;;;;;;;;;4989296;28;20245;-67
2021/04/11 09:52:19;;;;;;;4.73;1.03;;;;;;;;;;4938967;28;20204;-68
2021/04/11 09:55:01;;;;;;;4.63;0.90;;;;;;;;;;4979732;28;20191;-68
2021/04/11 09:57:56;;;;;;;3.83;1.10;;;;;;;;;;4983462;28;20298;-68
2021/04/11 10:00:37;;;;;;;2.67;1.20;;;;;;;;;;4979725;28;20201;-68
2021/04/11 10:03:26;;;;;;;5.23;1.00;;;;;;;;;;4998638;28;20206;-69
2021/04/11 10:06:11;;;;;;;6.67;1.20;;;;;;;;;;4981886;28;20215;-69
2021/04/11 10:09:08;;;;;;;6.30;1.20;;;;;;;;;;4995301;28;20527;-68
2021/04/11 10:11:52;;;;;;;4.90;1.20;;;;;;;;;;4984148;28;20202;-68
2021/04/11 10:14:40;;;;;;;4.17;1.50;;;;;;;;;;4997023;28;20278;-69
2021/04/11 10:17:38;;;;;;;4.27;1.50;;;;;;;;;;4983059;28;20298;-69
2021/04/11 10:20:16;;;;;;;5.10;1.50;;;;;;;;;;4989663;28;20198;-69
2021/04/11 10:22:58;;;;;;;3.47;1.20;;;;;;;;;;4995127;28;20281;-69
2021/04/11 10:25:31;;;;;;;6.43;1.37;;;;;;;;;;4993617;28;20641;-68
2021/04/11 10:28:18;;;;;;;6.67;1.60;;;;;;;;;;4987096;28;20191;-68
2021/04/11 10:30:49;;;;;;;2.53;1.20;;;;;;;;;;4994689;28;20202;-68
2021/04/11 10:33:42;;;;;;;2.97;1.23;;;;;;;;;;4986689;28;20304;-69
2021/04/11 10:36:15;;;;;;;5.77;1.63;;;;;;;;;;4993461;28;20195;-69
2021/04/11 10:38:58;;;;;;;4.77;1.20;;;;;;;;;;4989294;28;20282;-69
2021/04/11 10:41:36;;;;;;;4.63;1.27;;;;;;;;;;5008212;28;20223;-68
2021/04/11 10:44:05;;;;;;;3.63;1.50;;;;;;;;;;4985788;28;20250;-69
2021/04/11 10:46:51;;;;;;;3.73;1.30;;;;;;;;;;4996510;28;20191;-69
2021/04/11 10:49:41;;;;;;;2.47;1.20;;;;;;;;;;4983719;28;20689;-68
2021/04/11 10:52:15;;;;;;;4.77;1.30;;;;;;;;;;4992803;28;20279;-68
2021/04/11 10:54:47;;;;;;;4.60;1.10;;;;;;;;;;4991973;28;20626;-68
2021/04/11 10:57:45;;;;;;;4.53;1.23;;;;;;;;;;4993194;28;20699;-68
2021/04/11 11:00:19;;;;;;;7.37;1.30;;;;;;;;;;4994989;28;20245;-68
2021/04/11 11:03:03;;;;;;;2.87;1.40;;;;;;;;;;4995922;28;20435;-68
2021/04/11 11:05:38;;;;;;;3.47;1.00;;;;;;;;;;4992903;28;20785;-68
2021/04/11 11:08:12;;;;;;;3.63;1.50;;;;;;;;;;4991980;28;20198;-68
2021/04/11 11:11:07;;;;;;;3.07;1.10;;;;;;;;;;4997247;28;20214;-68
2021/04/11 11:14:03;;;;;;;2.50;0.97;;;;;;;;;;4986836;28;20272;-69
2021/04/11 11:16:51;;;;;;;1.63;0.80;;;;;;;;;;4992077;28;20286;-69
2021/04/11 11:19:27;;;;;;;4.07;1.20;;;;;;;;;;4991460;28;20191;-69
2021/04/11 11:22:10;;;;;;;4.43;1.37;;;;;;;;;;4994171;28;20202;-68
2021/04/11 11:24:48;;;;;;;1.40;0.90;;;;;;;;;;4982680;28;20227;-69
2021/04/11 11:27:41;;;;;;;4.87;1.30;;;;;;;;;;4994274;28;20278;-69
2021/04/11 11:30:13;;;;;;;4.40;1.20;;;;;;;;;;4981505;28;20294;-69
2021/04/11 11:33:18;;;;;;;4.83;1.00;;;;;;;;;;4994104;28;20650;-69
2021/04/11 11:35:50;;;;;;;3.87;1.20;;;;;;;;;;4983104;28;20198;-67
2021/04/11 11:38:25;;;;;;;3.97;1.27;;;;;;;;;;4991479;28;20186;-68
2021/04/11 11:41:10;;;;;;;3.23;0.93;;;;;;;;;;4986625;28;20246;-67
2021/04/11 11:43:59;;;;;;;4.87;1.07;;;;;;;;;;4999828;28;20170;-68
2021/04/11 11:46:48;;;;;;;3.50;1.00;;;;;;;;;;4990908;28;20209;-68
2021/04/11 11:49:20;;;;;;;4.83;1.10;;;;;;;;;;4986981;28;20598;-68
2021/04/11 11:52:04;;;;;;;4.20;1.10;;;;;;;;;;4989082;28;20210;-68
2021/04/11 11:54:53;;;;;;;3.07;1.03;;;;;;;;;;4995471;28;20175;-67
2021/04/11 11:57:46;;;;;;;1.60;0.70;;;;;;;;;;4980948;28;20520;-68
2021/04/11 12:00:24;;;;;;;3.60;1.03;;;;;;;;;;4998708;28;20193;-68
2021/04/11 12:02:56;;;;;;;3.87;1.20;;;;;;;;;;4990990;28;20294;-68
2021/04/11 12:05:33;;;;;;;1.47;1.00;;;;;;;;;;4999674;28;20191;-68
2021/04/11 12:08:05;;;;;;;2.33;1.20;;;;;;;;;;4987133;28;20182;-68
2021/04/11 12:11:01;;;;;;;3.27;0.90;;;;;;;;;;4999978;28;20181;-68
2021/04/11 12:13:37;;;;;;;2.60;1.07;;;;;;;;;;4984686;28;20207;-68
2021/04/11 12:16:18;;;;;;;2.97;1.30;;;;;;;;;;4994443;28;20273;-68
2021/04/11 12:19:07;;;;;;;1.57;1.20;;;;;;;;;;4984996;28;20565;-67
2021/04/11 12:21:41;;;;;;;4.50;1.30;;;;;;;;;;4989201;28;20198;-68
2021/04/11 12:24:17;;;;;;;3.37;1.30;;;;;;;;;;4983659;28;20614;-68
2021/04/11 12:27:03;;;;;;;2.10;1.13;;;;;;;;;;5002612;28;20186;-69
2021/04/11 12:29:31;;;;;;;1.37;0.70;;;;;;;;;;4992718;28;20179;-69
2021/04/11 12:32:18;;;;;;;2.03;1.10;;;;;;;;;;5000889;28;20290;-69
2021/04/11 12:35:20;;;;;;;4.00;0.80;;;;;;;;;;4992083;28;20178;-68
2021/04/11 12:38:22;;;;;;;2.33;0.60;;;;;;;;;;4985274;28;20256;-68
2021/04/11 12:41:03;;;;;;;1.87;0.50;;;;;;;;;;4996653;28;20233;-68
2021/04/11 12:43:40;;;;;;;2.67;0.53;;;;;;;;;;4983899;28;20187;-68
2021/04/11 12:46:12;;;;;;;3.00;0.67;;;;;;;;;;5003110;28;20207;-68
2021/04/11 12:49:00;;;;;;;0.90;0.50;;;;;;;;;;4987722;28;20286;-68
2021/04/11 12:51:44;;;;;;;4.90;0.70;;;;;;;;;;4998497;28;20258;-67
2021/04/11 12:54:30;;;;;;;1.67;0.60;;;;;;;;;;4982819;28;20241;-68
2021/04/11 12:57:01;;;;;;;1.73;0.67;;;;;;;;;;4988095;28;20186;-68
2021/04/11 12:59:37;;;;;;;1.73;0.50;;;;;;;;;;4985206;28;20191;-68
2021/04/11 13:02:15;;;;;;;4.47;0.70;;;;;;;;;;4998629;28;20699;-68
2021/04/11 13:04:46;;;;;;;1.57;0.70;;;;;;;;;;4983135;28;20306;-68
2021/04/11 13:07:25;;;;;;;3.93;0.70;;;;;;;;;;4990681;28;20965;-68
2021/04/11 13:10:06;;;;;;;2.53;0.40;;;;;;;;;;4983933;28;20195;-69
2021/04/11 13:12:59;;;;;;;1.77;0.50;;;;;;;;;;4988141;28;20195;-69
2021/04/11 13:15:33;;;;;;;2.17;0.63;;;;;;;;;;4983394;28;20184;-68
2021/04/11 13:18:13;;;;;;;4.27;0.67;;;;;;;;;;4988639;28;20192;-68
2021/04/11 13:21:05;;;;;;;3.60;0.77;;;;;;;;;;4988259;28;20194;-68
2021/04/11 13:23:37;;;;;;;2.22;0.70;;;;;;;;;;4988845;28;20774;-68
2021/04/11 13:26:11;;;;;;;2.08;0.90;;;;;;;;;;4986399;28;20215;-68
2021/04/11 13:28:55;;;;;;;1.77;0.57;;;;;;;;;;4993266;28;20629;-69
2021/04/11 13:31:33;;;;;;;1.30;0.60;;;;;;;;;;4980596;28;20274;-69
2021/04/11 13:34:23;;;;;;;0.80;0.47;;;;;;;;;;4990675;28;20191;-68
2021/04/11 13:36:50;;;;;;;0.57;0.40;;;;;;;;;;4983642;28;20209;-69
2021/04/11 13:39:32;;;;;;;1.00;0.40;;;;;;;;;;4993246;28;20513;-67
2021/04/11 13:42:31;;;;;;;1.80;0.87;;;;;;;;;;4985303;28;20218;-68
2021/04/11 13:45:14;;;;;;;1.43;0.30;;;;;;;;;;4993416;28;20207;-68
2021/04/11 13:47:57;;;;;;;1.23;0.30;;;;;;;;;;4985096;28;20649;-68
2021/04/11 13:50:38;;;;;;;3.73;0.77;;;;;;;;;;4991532;28;20194;-67
2021/04/11 13:53:26;;;;;;;1.60;0.60;;;;;;;;;;4987995;28;20778;-68
2021/04/11 13:56:00;;;;;;;2.17;0.70;;;;;;;;;;4997406;28;20226;-68
2021/04/11 13:58:46;;;;;;;3.77;0.73;;;;;;;;;;4988450;28;20191;-68
2021/04/11 14:01:39;;;;;;;1.33;0.60;;;;;;;;;;4996838;28;20225;-68
2021/04/11 14:04:28;;;;;;;4.90;0.70;;;;;;;;;;4988611;28;20300;-68
2021/04/11 14:07:08;;;;;;;1.77;0.53;;;;;;;;;;4997632;28;20211;-69
2021/04/11 14:09:41;;;;;;;1.97;0.60;;;;;;;;;;5003462;28;20553;-68
2021/04/11 14:12:19;;;;;;;2.50;0.60;;;;;;;;;;4998452;28;20289;-68
2021/04/11 14:15:02;;;;;;;1.57;0.57;;;;;;;;;;4994381;28;20184;-68
2021/04/11 14:17:42;;;;;;;3.90;0.53;;;;;;;;;;4993223;28;20670;-68
2021/04/11 14:20:27;;;;;;;1.37;0.40;;;;;;;;;;4996890;28;20599;-68
2021/04/11 14:23:00;;;;;;;4.97;0.70;;;;;;;;;;4991873;28;20673;-68
2021/04/11 14:25:36;;;;;;;2.33;0.60;;;;;;;;;;4994751;28;20293;-68
2021/04/11 14:28:36;;;;;;;2.43;0.60;;;;;;;;;;4998300;28;20191;-68
2021/04/11 14:31:16;;;;;;;0.93;0.40;;;;;;;;;;4990957;28;20192;-68
2021/04/11 14:34:03;;;;;;;1.37;0.50;;;;;;;;;;4989249;28;20191;-69
2021/04/11 14:36:40;;;;;;;3.90;0.63;;;;;;;;;;4994997;28;20184;-68
2021/04/11 14:39:21;;;;;;;3.70;0.80;;;;;;;;;;4985152;28;20608;-68
2021/04/11 14:41:54;;;;;;;3.43;0.77;;;;;;;;;;4997113;28;20278;-70
2021/04/11 14:44:59;;;;;;;2.83;0.60;;;;;;;;;;4989378;28;21694;-69
2021/04/11 14:47:54;;;;;;;3.73;1.83;;;;;;;;;;4989234;28;20211;-69
2021/04/11 14:50:33;;;;;;;4.40;0.70;;;;;;;;;;4983512;28;20199;-69
2021/04/11 14:53:21;;;;;;;3.20;0.93;;;;;;;;;;4997513;28;20198;-68
2021/04/11 14:56:02;;;;;;;3.43;0.70;;;;;;;;;;4988471;28;20214;-68
2021/04/11 14:58:46;;;;;;;1.53;0.60;;;;;;;;;;5005339;28;20198;-68
2021/04/11 15:01:17;;;;;;;2.40;0.63;;;;;;;;;;4985270;28;20256;-68
2021/04/11 15:03:44;;;;;;;2.80;0.70;;;;;;;;;;4998737;28;20222;-67
2021/04/11 15:06:31;;;;;;;2.93;1.00;;;;;;;;;;4988181;28;20237;-67
2021/04/11 15:09:30;;;;;;;4.25;0.68;;;;;;;;;;4988469;28;20681;-68
2021/04/11 15:12:34;;;;;;;2.73;0.93;;;;;;;;;;4984560;28;20225;-68
2021/04/11 15:15:09;;;;;;;3.42;0.82;;;;;;;;;;4990585;28;20194;-68
2021/04/11 15:18:06;;;;;;;2.70;0.80;;;;;;;;;;4985036;28;20206;-68
2021/04/11 15:20:37;;;;;;;2.07;0.80;;;;;;;;;;4996512;28;20282;-68
2021/04/11 15:23:22;;;;;;;3.33;0.70;;;;;;;;;;4988091;28;20219;-68
2021/04/11 15:25:59;;;;;;;3.00;0.60;;;;;;;;;;4994069;28;20397;-68
2021/04/11 15:28:38;;;;;;;2.50;0.80;;;;;;;;;;4994077;28;20274;-68
2021/04/11 15:31:15;;;;;;;3.60;0.87;;;;;;;;;;4994603;28;20195;-67
2021/04/11 15:33:51;;;;;;;6.83;0.90;;;;;;;;;;4989845;28;20172;-68
2021/04/11 15:36:31;;;;;;;4.73;0.90;;;;;;;;;;4993103;28;20769;-68
2021/04/11 15:39:10;;;;;;;3.90;0.70;;;;;;;;;;4991200;28;20183;-68
2021/04/11 15:41:46;;;;;;;2.17;0.63;;;;;;;;;;4987648;28;20229;-68
2021/04/11 15:44:30;;;;;;;2.92;0.57;;;;;;;;;;4991586;28;20207;-68